Time;durP1;ratioP1;P1;durP2;ratioP2;P2;SDS_P1;SDS_P2;PMS_P1;PMS_P2;Temp;Humidity;BMP_temperature;BMP_pressure;BME280_temperature;BME280_humidity;BME280_pressure;Samples;Min_cycle;Max_cycle;Signal;HPM_P1;HPM_P2
2023/04/17 00:00:25;;;;;;;16.98;8.00;;;;;;;10.52;100.00;101886.19;5041457;28;20053;-92
2023/04/17 00:02:51;;;;;;;15.77;7.80;;;;;;;10.55;100.00;101873.06;5040867;28;20047;-92
2023/04/17 00:05:21;;;;;;;16.67;8.23;;;;;;;10.45;100.00;101859.25;5040923;28;20091;-92
2023/04/17 00:07:48;;;;;;;17.80;8.98;;;;;;;10.48;100.00;101881.03;5036467;28;20049;-92
2023/04/17 00:10:15;;;;;;;18.85;9.05;;;;;;;10.64;100.00;101924.38;5041503;28;20053;-91
2023/04/17 00:12:42;;;;;;;24.80;10.27;;;;;;;10.24;100.00;101881.44;5040103;28;20049;-92
2023/04/17 00:15:09;;;;;;;22.05;9.52;;;;;;;10.20;100.00;101887.63;5041180;28;20064;-93
2023/04/17 00:17:36;;;;;;;23.23;9.68;;;;;;;10.30;100.00;101887.44;5041158;28;20060;-92
2023/04/17 00:20:09;;;;;;;22.55;9.35;;;;;;;10.05;100.00;101856.47;5040936;28;20044;-91
2023/04/17 00:22:36;;;;;;;18.55;8.40;;;;;;;9.78;100.00;101815.97;5041328;28;20052;-92
2023/04/17 00:25:04;;;;;;;21.05;9.30;;;;;;;10.10;100.00;101891.28;5039728;28;20053;-92
2023/04/17 00:27:31;;;;;;;35.55;15.55;;;;;;;9.81;100.00;101853.41;5039006;28;20064;-91
2023/04/17 00:29:58;;;;;;;22.80;11.60;;;;;;;9.85;100.00;101868.16;5037898;28;20049;-91
2023/04/17 00:32:24;;;;;;;22.42;12.23;;;;;;;9.84;100.00;101876.91;5039410;28;20055;-91
2023/04/17 00:34:51;;;;;;;31.80;12.65;;;;;;;9.63;100.00;101883.34;5039940;28;20084;-91
2023/04/17 00:37:21;;;;;;;25.77;12.38;;;;;;;9.59;100.00;101873.78;5039822;28;20048;-91
2023/04/17 00:39:47;;;;;;;23.55;10.50;;;;;;;9.71;100.00;101872.75;5039965;28;20060;-92
2023/04/17 00:42:14;;;;;;;27.63;10.82;;;;;;;9.75;100.00;101894.47;5038980;28;20106;-91
2023/04/17 00:44:41;;;;;;;22.67;11.00;;;;;;;9.52;100.00;101856.47;5039315;28;20052;-90
2023/04/17 00:47:08;;;;;;;21.80;9.80;;;;;;;9.65;100.00;101872.81;5039525;28;20056;-92
2023/04/17 00:49:35;;;;;;;26.77;11.20;;;;;;;9.72;100.00;101902.38;5039147;28;20052;-91
2023/04/17 00:52:02;;;;;;;21.45;9.80;;;;;;;9.53;100.00;101873.03;5038589;28;20049;-92
2023/04/17 00:54:30;;;;;;;24.60;10.73;;;;;;;9.66;100.00;101898.94;5039715;28;20052;-92
2023/04/17 00:57:00;;;;;;;22.00;9.50;;;;;;;9.59;100.00;101888.63;5040467;28;20049;-92
2023/04/17 00:59:27;;;;;;;24.38;10.02;;;;;;;9.58;100.00;101882.53;5040633;28;20060;-92
2023/04/17 01:01:54;;;;;;;21.70;9.95;;;;;;;9.57;100.00;101904.31;5040950;28;20060;-92
2023/04/17 01:04:21;;;;;;;29.17;10.77;;;;;;;9.49;100.00;101901.84;5040139;28;20109;-92
2023/04/17 01:06:48;;;;;;;24.75;9.55;;;;;;;9.37;100.00;101904.63;5044933;28;20059;-93
2023/04/17 01:09:15;;;;;;;26.67;10.90;;;;;;;9.11;100.00;101853.56;5041709;28;20056;-92
2023/04/17 01:11:42;;;;;;;17.45;9.52;;;;;;;9.24;100.00;101872.56;5049528;28;20045;-91
2023/04/17 01:14:09;;;;;;;27.48;11.80;;;;;;;9.19;100.00;101908.34;5040368;28;20047;-91
2023/04/17 01:16:38;;;;;;;40.75;12.95;;;;;;;9.06;100.00;101881.50;5036101;28;20423;-91
2023/04/17 01:19:07;;;;;;;24.40;10.55;;;;;;;9.12;100.00;101894.50;5038005;28;20417;-90
2023/04/17 01:21:34;;;;;;;21.13;9.35;;;;;;;9.42;100.00;101917.59;5042192;28;20053;-92
2023/04/17 01:24:02;;;;;;;26.08;12.10;;;;;;;9.24;100.00;101909.16;5051587;28;20048;-92
2023/04/17 01:26:30;;;;;;;22.60;8.93;;;;;;;9.44;100.00;101918.47;5042684;28;20045;-91
2023/04/17 01:28:58;;;;;;;20.00;9.20;;;;;;;9.19;100.00;101883.94;5040063;28;20053;-92
2023/04/17 01:31:27;;;;;;;21.05;7.82;;;;;;;9.67;100.00;101921.63;5043191;28;20056;-91
2023/04/17 01:33:54;;;;;;;28.17;11.68;;;;;;;9.37;100.00;101907.22;5056380;28;20044;-91
2023/04/17 01:36:21;;;;;;;20.20;7.85;;;;;;;9.80;100.00;101969.38;5043838;28;20059;-92
2023/04/17 01:38:48;;;;;;;18.95;7.93;;;;;;;9.74;100.00;101972.09;5043381;28;20072;-91
2023/04/17 01:41:15;;;;;;;19.23;8.60;;;;;;;9.25;100.00;101896.94;5042208;28;20474;-91
2023/04/17 01:43:45;;;;;;;28.10;8.23;;;;;;;9.68;100.00;101972.16;5041142;28;20120;-91
2023/04/17 01:46:12;;;;;;;31.17;7.95;;;;;;;9.61;100.00;101975.75;5059326;28;20041;-90
2023/04/17 01:48:39;;;;;;;21.48;8.48;;;;;;;9.60;100.00;101974.03;5042917;28;20123;-90
2023/04/17 01:51:06;;;;;;;17.83;7.82;;;;;;;9.49;100.00;101958.47;5040984;28;20044;-90
2023/04/17 01:53:34;;;;;;;33.67;7.28;;;;;;;9.38;100.00;101932.47;5029665;28;20048;-91
2023/04/17 01:56:00;;;;;;;27.92;8.90;;;;;;;9.39;100.00;101936.81;5041745;28;20049;-92
2023/04/17 01:58:28;;;;;;;35.80;9.57;;;;;;;9.49;100.00;101961.97;5043483;28;20056;-91
2023/04/17 02:00:55;;;;;;;26.27;9.90;;;;;;;9.44;100.00;101931.56;5043214;28;20057;-91
2023/04/17 02:03:23;;;;;;;25.40;7.75;;;;;;;9.31;100.00;101918.66;5042835;28;20045;-91
2023/04/17 02:05:52;;;;;;;24.00;7.05;;;;;;;9.46;100.00;101935.00;5043251;28;20049;-91
2023/04/17 02:08:19;;;;;;;21.85;6.25;;;;;;;9.32;100.00;101929.94;5042428;28;20776;-90
2023/04/17 02:10:46;;;;;;;17.67;7.95;;;;;;;9.52;100.00;101947.97;5049296;28;20053;-91
2023/04/17 02:13:13;;;;;;;14.95;6.78;;;;;;;9.54;100.00;101945.34;5059637;28;20052;-91
2023/04/17 02:15:39;;;;;;;24.30;7.60;;;;;;;9.58;100.00;101958.38;5042279;28;20052;-91
2023/04/17 02:18:06;;;;;;;22.85;7.32;;;;;;;9.32;100.00;101932.56;5042525;28;20379;-90
2023/04/17 02:20:35;;;;;;;21.60;8.35;;;;;;;9.05;100.00;101905.06;5044742;28;20045;-89
2023/04/17 02:23:03;;;;;;;17.20;6.57;;;;;;;9.15;100.00;101913.63;5041100;28;20513;-91
2023/04/17 02:25:30;;;;;;;23.40;6.70;;;;;;;9.35;100.00;101963.00;5041836;28;20059;-92
2023/04/17 02:27:57;;;;;;;29.33;8.73;;;;;;;8.92;100.00;101907.81;5041370;28;20068;-91
2023/04/17 02:30:25;;;;;;;28.42;7.97;;;;;;;9.27;100.00;101968.34;5058769;28;20049;-91
2023/04/17 02:32:53;;;;;;;25.23;7.68;;;;;;;9.64;100.00;102007.09;5047099;28;20057;-91
2023/04/17 02:35:21;;;;;;;21.70;7.07;;;;;;;9.55;100.00;102004.59;5058880;28;20628;-90
2023/04/17 02:37:49;;;;;;;23.23;7.20;;;;;;;9.57;100.00;102027.22;5040913;28;20071;-90
2023/04/17 02:40:16;;;;;;;22.55;6.15;;;;;;;9.24;100.00;101950.97;5041597;28;20056;-90
2023/04/17 02:42:42;;;;;;;22.17;6.93;;;;;;;9.41;100.00;101978.63;5041008;28;20049;-90
2023/04/17 02:45:10;;;;;;;27.45;8.93;;;;;;;9.14;100.00;101951.97;5038305;28;20041;-90
2023/04/17 02:47:37;;;;;;;30.20;9.32;;;;;;;9.46;100.00;101998.59;5042477;28;20387;-90
2023/04/17 02:50:05;;;;;;;24.75;8.15;;;;;;;9.38;100.00;101962.97;5041662;28;20453;-91
2023/04/17 02:52:32;;;;;;;21.95;6.20;;;;;;;9.56;100.00;101983.66;5041160;28;20053;-90
2023/04/17 02:54:59;;;;;;;11.40;4.22;;;;;;;9.38;100.00;101957.75;5054442;28;20470;-90
2023/04/17 02:57:26;;;;;;;21.20;6.57;;;;;;;9.61;100.00;102013.22;5040946;28;20076;-91
2023/04/17 02:59:52;;;;;;;19.08;5.70;;;;;;;9.38;100.00;101971.69;5041947;28;20429;-91
2023/04/17 03:02:20;;;;;;;20.20;5.57;;;;;;;9.74;100.00;102018.28;5044655;28;20057;-91
2023/04/17 03:04:49;;;;;;;17.58;4.95;;;;;;;9.52;100.00;102015.94;5044482;28;20144;-89
2023/04/17 03:07:17;;;;;;;20.02;5.95;;;;;;;9.36;100.00;101985.66;5052781;28;20103;-91
2023/04/17 03:09:47;;;;;;;27.70;6.53;;;;;;;9.38;100.00;101992.59;5043775;28;20053;-91
2023/04/17 03:12:16;;;;;;;21.88;5.55;;;;;;;9.68;100.00;102043.66;5038356;28;20056;-91
2023/04/17 03:14:43;;;;;;;15.13;5.32;;;;;;;9.50;100.00;102002.91;5057545;28;20095;-91
2023/04/17 03:17:10;;;;;;;19.33;5.28;;;;;;;9.74;100.00;102033.97;5046743;28;20426;-91
2023/04/17 03:19:37;;;;;;;12.95;4.60;;;;;;;9.47;100.00;101974.19;5044674;28;20052;-91
2023/04/17 03:22:04;;;;;;;17.98;5.53;;;;;;;9.20;100.00;101948.41;5047400;28;20041;-91
2023/04/17 03:24:31;;;;;;;16.05;5.28;;;;;;;9.69;100.00;102034.91;5057132;28;20075;-91
2023/04/17 03:26:59;;;;;;;21.25;6.32;;;;;;;9.48;100.00;101999.44;5049005;28;20489;-91
2023/04/17 03:29:27;;;;;;;19.52;5.75;;;;;;;9.44;100.00;101997.75;5047438;28;20095;-91
2023/04/17 03:31:53;;;;;;;30.33;7.15;;;;;;;9.41;100.00;102016.09;5039170;28;20402;-91
2023/04/17 03:34:21;;;;;;;21.23;7.88;;;;;;;9.52;100.00;102034.25;5057435;28;20132;-91
2023/04/17 03:36:48;;;;;;;22.90;7.28;;;;;;;9.26;100.00;101991.00;5039466;28;20041;-91
2023/04/17 03:39:15;;;;;;;20.40;6.55;;;;;;;9.54;100.00;102053.41;5038951;28;20060;-91
2023/04/17 03:41:42;;;;;;;20.42;6.95;;;;;;;9.12;100.00;101995.53;5039531;28;20406;-91
2023/04/17 03:44:08;;;;;;;18.88;5.95;;;;;;;9.16;100.00;101999.84;5039241;28;20041;-91
2023/04/17 03:46:37;;;;;;;15.38;5.75;;;;;;;9.42;100.00;102040.47;5042374;28;20053;-92
2023/04/17 03:49:04;;;;;;;27.65;8.05;;;;;;;9.16;100.00;102018.13;5038252;28;20055;-91
2023/04/17 03:51:31;;;;;;;23.27;7.43;;;;;;;9.19;100.00;101999.81;5057426;28;20056;-91
2023/04/17 03:53:57;;;;;;;21.80;5.95;;;;;;;9.50;100.00;102049.94;5041185;28;20045;-92
2023/04/17 03:56:24;;;;;;;18.00;5.90;;;;;;;9.54;100.00;102063.84;5055038;28;20054;-93
2023/04/17 03:58:51;;;;;;;28.40;8.13;;;;;;;9.23;100.00;102032.00;5040303;28;20372;-90
2023/04/17 04:01:18;;;;;;;20.67;6.80;;;;;;;9.16;100.00;102025.97;5040113;28;20051;-90
2023/04/17 04:03:45;;;;;;;22.00;5.20;;;;;;;9.36;100.00;102059.72;5037377;28;20041;-91
2023/04/17 04:06:12;;;;;;;17.40;5.38;;;;;;;9.42;100.00;102066.63;5040970;28;20057;-89
2023/04/17 04:08:39;;;;;;;20.38;5.97;;;;;;;8.98;100.00;101989.56;5040810;28;20059;-90
2023/04/17 04:11:06;;;;;;;21.35;5.97;;;;;;;9.26;100.00;102034.56;5040766;28;20052;-91
2023/04/17 04:13:33;;;;;;;24.80;6.07;;;;;;;9.04;100.00;102010.44;5036950;28;20052;-87
2023/04/17 04:16:00;;;;;;;25.98;6.03;;;;;;;9.09;100.00;102009.50;5035074;28;20493;-87
2023/04/17 04:18:27;;;;;;;21.38;6.28;;;;;;;9.28;100.00;102031.06;5036714;28;20126;-92
2023/04/17 04:20:54;;;;;;;16.60;4.57;;;;;;;9.45;100.00;102043.06;5039546;28;20406;-92
2023/04/17 04:23:23;;;;;;;16.55;5.32;;;;;;;9.68;100.00;102066.31;5055149;28;20064;-92
2023/04/17 04:25:50;;;;;;;23.52;6.95;;;;;;;9.55;100.00;102017.69;5057022;28;20052;-89
2023/04/17 04:28:17;;;;;;;18.38;5.95;;;;;;;9.46;100.00;102026.50;5055268;28;20047;-89
2023/04/17 04:30:49;;;;;;;18.70;5.15;;;;;;;9.83;100.00;102062.66;5039299;28;20053;-90
2023/04/17 04:33:19;;;;;;;10.75;3.95;;;;;;;9.56;100.00;101994.13;5039287;28;20113;-90
2023/04/17 04:35:47;;;;;;;17.27;5.15;;;;;;;9.91;100.00;102052.91;5039718;28;20528;-90
2023/04/17 04:38:15;;;;;;;14.07;5.22;;;;;;;9.76;100.00;102032.22;5039933;28;20136;-89
2023/04/17 04:40:50;;;;;;;15.73;5.45;;;;;;;9.75;100.00;102052.25;5039586;28;20053;-91
2023/04/17 04:43:18;;;;;;;11.07;4.05;;;;;;;9.61;100.00;101999.28;5039438;28;20049;-90
2023/04/17 04:45:47;;;;;;;18.88;5.22;;;;;;;9.80;100.00;102040.00;5040564;28;20063;-91
2023/04/17 04:48:14;;;;;;;14.32;4.53;;;;;;;9.61;100.00;102009.75;5036078;28;20052;-91
2023/04/17 04:50:41;;;;;;;26.80;7.43;;;;;;;9.52;100.00;102004.63;5039524;28;20053;-90
2023/04/17 04:53:08;;;;;;;10.68;4.10;;;;;;;9.60;100.00;102010.66;5039264;28;20053;-91
2023/04/17 04:55:35;;;;;;;14.82;4.68;;;;;;;9.90;100.00;102059.06;5055816;28;20056;-90
2023/04/17 04:58:01;;;;;;;14.93;3.92;;;;;;;9.70;100.00;102007.00;5039656;28;20045;-91
2023/04/17 05:00:28;;;;;;;16.63;5.90;;;;;;;9.98;100.00;102057.19;5044581;28;20063;-92
2023/04/17 05:02:55;;;;;;;22.05;6.35;;;;;;;9.99;100.00;102089.47;5062130;28;20049;-91
2023/04/17 05:05:24;;;;;;;13.18;5.70;;;;;;;9.83;100.00;102063.50;5045444;28;20072;-92
2023/04/17 05:07:53;;;;;;;16.50;7.13;;;;;;;9.98;100.00;102099.03;5044782;28;20075;-91
2023/04/17 05:10:20;;;;;;;16.05;4.40;;;;;;;9.74;100.00;102089.78;5044201;28;20065;-90
2023/04/17 05:12:47;;;;;;;16.52;5.28;;;;;;;9.35;100.00;102037.09;5045946;28;20060;-90
2023/04/17 05:15:14;;;;;;;20.02;5.40;;;;;;;9.39;100.00;102056.22;5042740;28;20045;-91
2023/04/17 05:17:41;;;;;;;20.50;5.57;;;;;;;9.39;100.00;102043.16;5044834;28;20071;-91
2023/04/17 05:20:08;;;;;;;21.63;6.43;;;;;;;9.16;100.00;102025.97;5044838;28;20079;-91
2023/04/17 05:22:35;;;;;;;22.58;6.65;;;;;;;9.24;100.00;102046.78;5044374;28;20053;-91
2023/04/17 05:25:03;;;;;;;21.33;5.95;;;;;;;9.73;100.00;102129.88;5042784;28;20050;-91
2023/04/17 05:27:30;;;;;;;24.98;6.68;;;;;;;9.34;100.00;102090.25;5042373;28;20060;-92
2023/04/17 05:29:57;;;;;;;16.63;5.05;;;;;;;9.25;100.00;102072.91;5041327;28;20052;-91
2023/04/17 05:32:23;;;;;;;22.17;6.60;;;;;;;9.58;100.00;102120.47;5051215;28;20151;-92
2023/04/17 05:34:52;;;;;;;18.08;6.65;;;;;;;9.19;100.00;102052.06;5046578;28;20055;-92
2023/04/17 05:37:19;;;;;;;15.95;4.53;;;;;;;9.18;100.00;102058.16;5062564;28;20064;-91
2023/04/17 05:39:46;;;;;;;20.60;5.43;;;;;;;9.24;100.00;102052.91;5053784;28;20060;-91
2023/04/17 05:42:12;;;;;;;20.48;4.97;;;;;;;9.45;100.00;102075.28;5041464;28;20128;-92
2023/04/17 05:44:39;;;;;;;21.60;6.70;;;;;;;9.45;100.00;102079.66;5041755;28;20044;-91
2023/04/17 05:47:06;;;;;;;17.23;5.25;;;;;;;9.72;100.00;102112.47;5043990;28;20049;-91
2023/04/17 05:49:33;;;;;;;12.25;4.15;;;;;;;9.79;100.00;102111.53;5040506;28;20061;-91
2023/04/17 05:52:00;;;;;;;12.55;4.72;;;;;;;9.83;100.00;102109.72;5052532;28;20076;-91
2023/04/17 05:54:29;;;;;;;14.20;5.47;;;;;;;9.82;100.00;102111.47;5040493;28;20045;-89
2023/04/17 05:56:55;;;;;;;18.50;4.75;;;;;;;9.68;100.00;102095.97;5057650;28;20053;-88
2023/04/17 05:59:22;;;;;;;9.98;3.95;;;;;;;9.81;100.00;102095.78;5050458;28;20060;-88
2023/04/17 06:01:49;;;;;;;15.07;4.53;;;;;;;9.99;100.00;102132.19;5039112;28;20053;-88
2023/04/17 06:04:16;;;;;;;13.30;3.65;;;;;;;9.92;100.00;102091.28;5039709;28;20095;-85
2023/04/17 06:06:44;;;;;;;15.85;4.20;;;;;;;9.85;100.00;102084.41;5056516;28;20053;-87
2023/04/17 06:09:11;;;;;;;18.75;4.63;;;;;;;9.98;100.00;102095.56;5042190;28;20056;-88
2023/04/17 06:11:38;;;;;;;12.27;4.03;;;;;;;10.27;100.00;102129.22;5036671;28;20501;-88
2023/04/17 06:14:05;;;;;;;14.25;3.97;;;;;;;9.97;100.00;102113.03;5038947;28;20053;-87
2023/04/17 06:16:31;;;;;;;15.43;4.90;;;;;;;10.15;100.00;102147.69;5039789;28;20052;-87
2023/04/17 06:18:58;;;;;;;13.10;4.10;;;;;;;10.05;100.00;102111.16;5046062;28;20075;-90
2023/04/17 06:21:25;;;;;;;14.02;3.85;;;;;;;10.16;100.00;102115.38;5035562;28;20383;-88
2023/04/17 06:23:52;;;;;;;11.20;3.70;;;;;;;10.17;100.00;102128.47;5039267;28;20059;-89
2023/04/17 06:26:19;;;;;;;15.00;3.80;;;;;;;10.20;100.00;102109.25;5056179;28;20049;-88
2023/04/17 06:28:46;;;;;;;12.30;3.78;;;;;;;10.37;100.00;102164.84;5056030;28;20045;-89
2023/04/17 06:31:13;;;;;;;13.52;3.90;;;;;;;10.36;100.00;102139.59;5056167;28;20053;-89
2023/04/17 06:33:39;;;;;;;14.13;3.95;;;;;;;10.15;100.00;102119.78;5033311;28;20046;-90
2023/04/17 06:36:06;;;;;;;18.63;5.20;;;;;;;10.20;100.00;102143.28;5048224;28;20060;-89
2023/04/17 06:38:33;;;;;;;18.85;5.93;;;;;;;10.26;100.00;102159.75;5056416;28;20402;-87
2023/04/17 06:41:00;;;;;;;23.58;5.97;;;;;;;10.11;100.00;102164.31;5039021;28;20025;-89
2023/04/17 06:43:26;;;;;;;19.67;4.93;;;;;;;9.99;100.00;102126.09;5047227;28;20053;-88
2023/04/17 06:45:53;;;;;;;14.70;4.57;;;;;;;10.35;100.00;102211.16;5035037;28;20048;-87
2023/04/17 06:48:20;;;;;;;18.30;5.95;;;;;;;10.11;100.00;102170.44;5033332;28;20135;-88
2023/04/17 06:50:47;;;;;;;22.20;5.53;;;;;;;10.26;100.00;102169.34;5038530;28;20049;-88
2023/04/17 06:53:14;;;;;;;13.30;4.20;;;;;;;10.27;100.00;102185.03;5037833;28;20049;-88
2023/04/17 06:55:41;;;;;;;16.52;4.25;;;;;;;10.12;100.00;102156.44;5038349;28;20402;-88
2023/04/17 06:58:08;;;;;;;16.40;3.63;;;;;;;10.30;100.00;102194.59;5041823;28;20045;-88
2023/04/17 07:00:35;;;;;;;16.38;4.53;;;;;;;10.03;100.00;102172.28;5056758;28;20064;-88
2023/04/17 07:03:02;;;;;;;13.93;3.70;;;;;;;10.04;100.00;102198.41;5055216;28;20053;-89
2023/04/17 07:05:29;;;;;;;13.68;3.95;;;;;;;10.18;100.00;102190.41;5038317;28;20131;-88
2023/04/17 07:07:56;;;;;;;19.42;3.88;;;;;;;10.22;100.00;102206.94;5055633;28;20051;-88
2023/04/17 07:10:22;;;;;;;16.67;4.80;;;;;;;10.37;100.00;102213.75;5035280;28;20143;-89
2023/04/17 07:12:50;;;;;;;18.92;5.53;;;;;;;9.69;100.00;102159.59;5037031;28;20178;-89
2023/04/17 07:15:17;;;;;;;16.55;4.45;;;;;;;9.87;100.00;102175.06;5055404;28;20041;-89
2023/04/17 07:17:43;;;;;;;15.68;4.38;;;;;;;9.98;100.00;102211.56;5037342;28;20059;-88
2023/04/17 07:20:11;;;;;;;17.42;3.97;;;;;;;10.09;100.00;102193.13;5056313;28;20053;-90
2023/04/17 07:22:37;;;;;;;18.02;6.82;;;;;;;9.80;100.00;102190.84;5038323;28;20049;-88
2023/04/17 07:25:05;;;;;;;19.38;6.35;;;;;;;9.56;100.00;102177.16;5037943;28;20049;-89
2023/04/17 07:27:32;;;;;;;20.75;5.82;;;;;;;9.88;100.00;102218.66;5041929;28;20410;-88
2023/04/17 07:29:59;;;;;;;23.05;5.07;;;;;;;10.04;100.00;102239.44;5041842;28;20068;-89
2023/04/17 07:32:27;;;;;;;20.63;4.90;;;;;;;9.92;100.00;102222.13;5049830;28;20079;-89
2023/04/17 07:34:54;;;;;;;24.65;6.22;;;;;;;9.72;100.00;102204.03;5037242;28;20478;-88
2023/04/17 07:37:21;;;;;;;17.13;6.07;;;;;;;9.66;100.00;102207.53;5045173;28;20045;-89
2023/04/17 07:39:51;;;;;;;20.20;5.45;;;;;;;9.88;100.00;102231.75;5059977;28;20110;-88
2023/04/17 07:42:18;;;;;;;30.52;6.72;;;;;;;9.71;100.00;102197.03;5059636;28;20059;-89
2023/04/17 07:44:46;;;;;;;17.17;5.13;;;;;;;10.20;100.00;102288.09;5047047;28;20056;-90
2023/04/17 07:47:12;;;;;;;16.15;4.00;;;;;;;9.56;100.00;102185.00;5041305;28;20052;-88
2023/04/17 07:49:39;;;;;;;16.77;4.95;;;;;;;10.10;100.00;102269.91;5039299;28;20049;-89
2023/04/17 07:52:06;;;;;;;19.60;4.50;;;;;;;9.92;100.00;102284.91;5036863;28;20048;-88
2023/04/17 07:54:33;;;;;;;23.60;6.32;;;;;;;9.67;100.00;102238.06;5038299;28;20049;-88
2023/04/17 07:57:01;;;;;;;20.40;5.45;;;;;;;9.84;100.00;102255.31;5039321;28;20053;-89
2023/04/17 07:59:29;;;;;;;20.95;5.75;;;;;;;9.81;100.00;102263.19;5038207;28;20051;-88
2023/04/17 08:01:56;;;;;;;26.48;5.28;;;;;;;10.03;100.00;102276.94;5055681;28;20098;-88
2023/04/17 08:04:24;;;;;;;27.92;6.07;;;;;;;10.14;100.00;102324.78;5039009;28;20049;-88
2023/04/17 08:06:51;;;;;;;16.63;5.22;;;;;;;10.00;100.00;102330.16;5055066;28;20080;-87
2023/04/17 08:09:21;;;;;;;16.95;5.25;;;;;;;10.00;100.00;102327.53;5038736;28;20122;-88
2023/04/17 08:11:47;;;;;;;20.30;5.63;;;;;;;9.83;100.00;102293.72;5037741;28;20478;-87
2023/04/17 08:14:23;;;;;;;19.45;5.38;;;;;;;9.90;100.00;102291.91;5055900;28;20160;-86
2023/04/17 08:16:51;;;;;;;13.02;3.72;;;;;;;10.10;100.00;102294.31;5037978;28;20048;-88
2023/04/17 08:19:18;;;;;;;19.13;4.50;;;;;;;9.87;100.00;102253.53;5038429;28;20660;-87
2023/04/17 08:21:48;;;;;;;23.63;6.65;;;;;;;10.03;100.00;102326.66;5055213;28;20060;-87
2023/04/17 08:24:16;;;;;;;12.57;4.10;;;;;;;9.99;100.00;102283.09;5038422;28;20506;-86
2023/04/17 08:26:46;;;;;;;25.02;5.18;;;;;;;9.64;100.00;102255.53;5055864;28;20114;-86
2023/04/17 08:29:13;;;;;;;17.17;5.28;;;;;;;10.03;100.00;102308.34;5037996;28;20467;-87
2023/04/17 08:31:40;;;;;;;23.63;4.43;;;;;;;10.04;100.00;102290.00;5037588;28;20053;-87
2023/04/17 08:34:07;;;;;;;21.88;4.95;;;;;;;10.12;100.00;102303.00;5040547;28;20040;-87
2023/04/17 08:36:40;;;;;;;21.77;5.55;;;;;;;9.72;100.00;102295.56;5043138;28;20052;-87
2023/04/17 08:39:09;;;;;;;20.13;5.13;;;;;;;10.25;100.00;102349.13;5042497;28;20045;-88
2023/04/17 08:42:01;;;;;;;16.38;4.55;;;;;;;10.50;100.00;102327.94;5041354;28;20474;-88
2023/04/17 08:44:29;;;;;;;16.92;4.20;;;;;;;10.15;100.00;102323.91;5042647;28;20048;-86
2023/04/17 08:46:59;;;;;;;17.08;5.20;;;;;;;9.80;100.00;102275.41;5042149;28;20478;-86
2023/04/17 08:49:34;;;;;;;20.40;4.82;;;;;;;10.15;100.00;102339.63;5059792;28;20072;-88
2023/04/17 08:52:03;;;;;;;22.15;5.25;;;;;;;9.80;100.00;102312.03;5059078;28;20049;-88
2023/04/17 08:54:34;;;;;;;20.35;4.68;;;;;;;9.56;100.00;102247.78;5058506;28;20053;-88
2023/04/17 08:57:04;;;;;;;24.45;6.35;;;;;;;9.73;100.00;102276.38;5041861;28;20402;-88
2023/04/17 08:59:31;;;;;;;19.65;4.88;;;;;;;10.12;100.00;102303.00;5042709;28;20052;-88
2023/04/17 09:02:06;;;;;;;25.48;6.00;;;;;;;9.98;100.00;102292.69;5044819;28;20044;-87
2023/04/17 09:04:44;;;;;;;26.38;6.10;;;;;;;9.98;100.00;102316.22;5059139;28;20048;-89
2023/04/17 09:07:12;;;;;;;23.95;5.93;;;;;;;10.13;100.00;102315.22;5041759;28;20063;-87
2023/04/17 09:09:49;;;;;;;12.68;3.55;;;;;;;10.34;100.00;102331.59;5058437;28;20098;-88
2023/04/17 09:12:17;;;;;;;14.77;4.38;;;;;;;10.48;100.00;102358.50;5041314;28;20509;-88
2023/04/17 09:14:44;;;;;;;25.15;6.47;;;;;;;10.05;100.00;102310.03;5059193;28;20040;-89
2023/04/17 09:17:12;;;;;;;25.95;6.40;;;;;;;9.88;100.00;102309.38;5047247;28;20049;-88
2023/04/17 09:20:05;;;;;;;18.67;5.03;;;;;;;10.22;100.00;102377.09;5059911;28;20502;-88
2023/04/17 09:22:34;;;;;;;18.02;5.50;;;;;;;9.89;100.00;102324.16;5040713;28;20056;-88
2023/04/17 09:25:01;;;;;;;21.27;4.85;;;;;;;9.96;100.00;102323.22;5055160;28;20049;-88
2023/04/17 09:27:28;;;;;;;20.73;5.75;;;;;;;10.41;100.00;102376.03;5041572;28;20072;-86
2023/04/17 09:29:58;;;;;;;19.25;4.75;;;;;;;10.37;100.00;102382.19;5060522;28;20486;-91
2023/04/17 09:32:26;;;;;;;19.42;5.60;;;;;;;10.17;100.00;102366.66;5054248;28;20055;-93
2023/04/17 09:35:07;;;;;;;26.77;6.47;;;;;;;10.27;100.00;102384.00;5059414;28;20067;-92
2023/04/17 09:37:50;;;;;;;15.18;4.30;;;;;;;10.38;100.00;102352.50;5054908;28;20052;-92
2023/04/17 09:40:19;;;;;;;21.63;4.70;;;;;;;10.26;100.00;102332.50;5052800;28;20059;-91
2023/04/17 09:42:56;;;;;;;22.77;6.05;;;;;;;10.37;100.00;102395.25;5050742;28;20052;-92
2023/04/17 09:45:25;;;;;;;12.57;3.85;;;;;;;9.97;100.00;102317.13;5059513;28;20094;-88
2023/04/17 09:47:55;;;;;;;22.40;5.70;;;;;;;10.09;100.00;102386.78;5045494;28;20048;-92
2023/04/17 09:50:25;;;;;;;23.00;5.35;;;;;;;9.80;100.00;102360.88;5052227;28;20059;-93
2023/04/17 09:53:06;;;;;;;;;;;;;;;10.42;100.00;102395.22;5058278;28;20053;-91
2023/04/17 09:55:36;;;;;;;20.05;6.78;;;;;;;10.44;100.00;102403.94;5043276;28;19922;-88
2023/04/17 09:58:06;;;;;;;20.42;5.13;;;;;;;9.93;100.00;102330.25;5056374;28;20033;-88
2023/04/17 10:00:35;;;;;;;20.05;4.65;;;;;;;10.27;100.00;102370.91;5040810;28;20071;-88
2023/04/17 10:03:02;;;;;;;19.02;5.05;;;;;;;10.17;100.00;102360.56;5042722;28;20099;-88
2023/04/17 10:05:31;;;;;;;22.40;5.07;;;;;;;10.22;100.00;102393.66;5040494;28;20115;-88
2023/04/17 10:07:58;;;;;;;10.07;3.92;;;;;;;10.18;100.00;102349.19;5041205;28;20049;-88
2023/04/17 10:10:32;;;;;;;16.83;3.97;;;;;;;10.75;100.00;102404.47;5040946;28;20106;-88
2023/04/17 10:13:05;;;;;;;13.10;4.05;;;;;;;10.53;100.00;102338.34;5040229;28;20056;-88
2023/04/17 10:15:33;;;;;;;;;;;;;;;10.98;100.00;102412.06;5040897;28;20072;-87
2023/04/17 10:18:18;;;;;;;21.92;4.70;;;;;;;11.02;100.00;102411.13;5058092;28;19928;-87
2023/04/17 10:20:47;;;;;;;23.60;4.63;;;;;;;10.92;100.00;102403.41;5040559;28;20379;-87
2023/04/17 10:23:33;;;;;;;18.02;4.38;;;;;;;10.90;100.00;102415.66;5039944;28;20482;-88
2023/04/17 10:26:33;;;;;;;19.38;5.10;;;;;;;10.40;100.00;102408.34;5041887;28;20510;-87
2023/04/17 10:29:00;;;;;;;19.40;4.63;;;;;;;10.60;100.00;102417.72;5014738;28;20475;-87
2023/04/17 10:32:04;;;;;;;18.42;5.63;;;;;;;10.61;100.00;102417.72;5040215;28;20143;-88
2023/04/17 10:34:38;;;;;;;17.90;5.40;;;;;;;10.42;100.00;102374.28;5040271;28;20151;-88
2023/04/17 10:37:13;;;;;;;14.13;4.10;;;;;;;10.53;100.00;102346.22;5037885;28;20073;-88
2023/04/17 10:40:08;;;;;;;16.67;4.97;;;;;;;11.18;100.00;102400.44;5050615;28;20394;-88
2023/04/17 10:42:35;;;;;;;18.95;4.20;;;;;;;10.61;100.00;102338.28;5034438;28;20503;-88
2023/04/17 10:45:07;;;;;;;20.30;5.15;;;;;;;10.77;100.00;102389.59;5040647;28;20402;-87
2023/04/17 10:47:34;;;;;;;31.10;5.50;;;;;;;10.69;100.00;102416.75;5043921;28;20056;-88
2023/04/17 10:50:04;;;;;;;18.63;3.95;;;;;;;11.30;100.00;102418.63;5049913;28;20098;-87
2023/04/17 10:52:33;;;;;;;18.05;4.43;;;;;;;11.38;100.00;102419.41;5040349;28;20107;-88
2023/04/17 10:55:07;;;;;;;17.08;4.32;;;;;;;11.21;100.00;102421.38;5040465;28;20375;-88
2023/04/17 10:57:59;;;;;;;18.77;4.53;;;;;;;10.87;100.00;102408.72;5039550;28;20407;-87
2023/04/17 11:00:28;;;;;;;20.50;4.88;;;;;;;10.85;100.00;102389.50;5058380;28;20053;-89
2023/04/17 11:02:55;;;;;;;22.67;4.35;;;;;;;10.83;100.00;102378.16;5057310;28;20059;-88
2023/04/17 11:05:23;;;;;;;25.83;5.18;;;;;;;10.64;100.00;102372.28;5039845;28;20045;-88
2023/04/17 11:07:50;;;;;;;15.73;4.72;;;;;;;11.07;100.00;102415.47;5039814;28;20055;-87
2023/04/17 11:10:21;;;;;;;22.92;5.07;;;;;;;10.90;100.00;102429.63;5040154;28;20079;-88
2023/04/17 11:12:57;;;;;;;18.98;5.22;;;;;;;10.93;100.00;102411.25;5039708;28;20051;-88
2023/04/17 11:15:28;;;;;;;21.08;4.15;;;;;;;10.78;100.00;102356.41;5057697;28;20386;-88
2023/04/17 11:17:57;;;;;;;20.25;4.70;;;;;;;10.69;100.00;102412.38;5038359;28;20056;-87
2023/04/17 11:20:26;;;;;;;26.92;5.90;;;;;;;11.02;100.00;102428.59;5049827;28;20099;-88